Time;durP1;ratioP1;P1;durP2;ratioP2;P2;SDS_P1;SDS_P2;PMS_P1;PMS_P2;Temp;Humidity;BMP_temperature;BMP_pressure;BME280_temperature;BME280_humidity;BME280_pressure;Samples;Min_cycle;Max_cycle;Signal;HPM_P1;HPM_P2
2022/05/05 00:00:14;;;;;;;11.43;4.50;;;7.60;99.90;;;;;;5048865;28;20037;-81
2022/05/05 00:02:40;;;;;;;9.75;5.18;;;7.60;99.90;;;;;;5048504;28;20056;-81
2022/05/05 00:05:06;;;;;;;10.20;5.05;;;7.60;99.90;;;;;;5047494;28;20102;-81
2022/05/05 00:07:32;;;;;;;10.23;5.05;;;7.60;99.90;;;;;;5047548;28;22499;-81
2022/05/05 00:09:58;;;;;;;10.75;5.25;;;7.50;99.90;;;;;;5049345;28;20103;-81
2022/05/05 00:15:08;;;;;;;10.82;5.03;;;7.50;99.90;;;;;;5045143;28;20139;-81
2022/05/05 00:17:34;;;;;;;11.77;5.20;;;7.50;99.90;;;;;;5047752;28;20057;-81
2022/05/05 00:20:00;;;;;;;11.88;4.70;;;7.50;99.90;;;;;;5045860;28;20054;-79
2022/05/05 00:22:26;;;;;;;12.18;5.57;;;7.50;99.90;;;;;;5042684;28;20060;-81
2022/05/05 00:24:52;;;;;;;14.45;5.35;;;7.50;99.90;;;;;;5048350;28;20045;-79
2022/05/05 00:27:18;;;;;;;15.38;5.32;;;7.50;99.90;;;;;;5045966;28;20411;-79
2022/05/05 00:29:44;;;;;;;11.05;5.05;;;7.50;99.90;;;;;;5047185;28;20179;-79
2022/05/05 00:32:11;;;;;;;9.60;5.10;;;7.50;99.90;;;;;;5045873;28;20136;-79
2022/05/05 00:34:37;;;;;;;12.50;5.22;;;7.50;99.90;;;;;;5045426;28;20044;-79
2022/05/05 00:37:03;;;;;;;9.25;5.20;;;7.40;99.90;;;;;;5049829;28;20048;-79
2022/05/05 00:39:28;;;;;;;10.98;4.72;;;7.40;99.90;;;;;;5047180;28;20461;-78
2022/05/05 00:41:54;;;;;;;14.30;5.40;;;7.40;99.90;;;;;;5049898;28;20107;-79
2022/05/05 00:44:20;;;;;;;13.32;5.68;;;7.40;99.90;;;;;;5044650;28;20420;-79
2022/05/05 00:46:51;;;;;;;9.95;5.05;;;7.40;99.90;;;;;;5044935;28;20060;-79
2022/05/05 00:49:18;;;;;;;10.02;5.50;;;7.40;99.90;;;;;;5046071;28;20048;-79
2022/05/05 00:51:44;;;;;;;10.23;5.22;;;7.40;99.90;;;;;;5043453;28;20051;-79
2022/05/05 00:54:09;;;;;;;10.60;4.95;;;7.40;99.90;;;;;;5045468;28;20439;-79
2022/05/05 00:56:36;;;;;;;12.65;5.80;;;7.30;99.90;;;;;;5045738;28;20076;-81
2022/05/05 00:59:02;;;;;;;10.02;4.80;;;7.30;99.90;;;;;;5046650;28;20052;-81
2022/05/05 01:01:28;;;;;;;12.57;5.25;;;7.30;99.90;;;;;;5041190;28;20059;-81
2022/05/05 01:03:53;;;;;;;8.95;5.00;;;7.30;99.90;;;;;;5046450;28;20045;-81
2022/05/05 01:06:19;;;;;;;14.60;5.43;;;7.30;99.90;;;;;;5045832;28;20114;-81
2022/05/05 01:08:46;;;;;;;11.27;4.72;;;7.30;99.90;;;;;;5047368;28;20037;-81
2022/05/05 01:11:12;;;;;;;13.95;5.65;;;7.30;99.90;;;;;;5049172;28;20080;-81
2022/05/05 01:13:42;;;;;;;10.38;5.47;;;7.30;99.90;;;;;;5046301;28;20079;-81
2022/05/05 01:16:10;;;;;;;8.40;4.53;;;7.20;99.90;;;;;;5047265;28;20044;-81
2022/05/05 01:18:36;;;;;;;9.70;4.82;;;7.30;99.90;;;;;;5044827;28;20057;-81
2022/05/05 01:21:03;;;;;;;14.38;6.40;;;7.30;99.90;;;;;;5045564;28;20048;-81
2022/05/05 01:23:28;;;;;;;8.10;4.95;;;7.20;99.90;;;;;;5043495;28;20464;-81
2022/05/05 01:28:43;;;;;;;11.30;5.53;;;7.20;99.90;;;;;;5046442;28;20049;-81
2022/05/05 01:31:09;;;;;;;13.85;5.82;;;7.20;99.90;;;;;;5046865;28;20116;-82
2022/05/05 01:33:35;;;;;;;9.50;5.20;;;7.30;99.90;;;;;;5045209;28;20044;-82
2022/05/05 01:36:01;;;;;;;11.35;4.95;;;7.30;99.90;;;;;;5047206;28;20053;-81
2022/05/05 01:38:43;;;;;;;12.38;5.47;;;7.30;99.90;;;;;;5046383;28;20151;-81
2022/05/05 01:41:13;;;;;;;11.90;5.22;;;7.30;99.90;;;;;;5043745;28;20059;-81
2022/05/05 01:43:42;;;;;;;10.60;4.90;;;7.30;99.90;;;;;;5045499;28;20092;-81
2022/05/05 01:46:07;;;;;;;10.77;5.07;;;7.30;99.90;;;;;;5048441;28;20041;-81
2022/05/05 01:48:33;;;;;;;9.02;5.20;;;7.30;99.90;;;;;;5044849;28;20060;-82
2022/05/05 01:50:59;;;;;;;10.65;5.15;;;7.30;99.90;;;;;;5047697;28;20072;-82
2022/05/05 01:53:25;;;;;;;11.75;5.55;;;7.30;99.90;;;;;;5044817;28;20087;-81
2022/05/05 01:55:51;;;;;;;13.45;5.30;;;7.40;99.90;;;;;;5045523;28;20064;-81
2022/05/05 01:58:16;;;;;;;8.93;4.65;;;7.30;99.90;;;;;;5047652;28;20045;-82
2022/05/05 02:00:43;;;;;;;12.63;5.72;;;7.30;99.90;;;;;;5046777;28;20693;-82
2022/05/05 02:03:14;;;;;;;10.60;5.07;;;7.30;99.90;;;;;;5044660;28;20098;-82
2022/05/05 02:05:41;;;;;;;12.38;5.65;;;7.30;99.90;;;;;;5044783;28;20041;-80
2022/05/05 02:08:08;;;;;;;13.85;5.35;;;7.20;99.90;;;;;;5045575;28;20057;-81
2022/05/05 02:10:34;;;;;;;11.18;5.40;;;7.20;99.90;;;;;;5044632;28;21486;-82
2022/05/05 02:13:00;;;;;;;12.73;5.30;;;7.20;99.90;;;;;;5046737;28;20053;-80
2022/05/05 02:15:27;;;;;;;12.48;5.80;;;7.20;99.90;;;;;;5044442;28;20056;-79
2022/05/05 02:17:52;;;;;;;15.57;5.28;;;7.10;99.90;;;;;;5046789;28;20057;-80
2022/05/05 02:20:18;;;;;;;8.88;5.50;;;7.10;99.90;;;;;;5046859;28;20067;-80
2022/05/05 02:22:44;;;;;;;13.95;5.90;;;7.10;99.90;;;;;;5041582;28;20045;-80
2022/05/05 02:25:10;;;;;;;13.38;5.82;;;7.00;99.90;;;;;;5046525;28;20084;-80
2022/05/05 02:27:52;;;;;;;11.77;5.63;;;7.00;99.90;;;;;;5044586;28;20048;-80
2022/05/05 02:30:19;;;;;;;10.13;5.72;;;7.00;99.90;;;;;;5046278;28;20045;-82
2022/05/05 02:32:46;;;;;;;13.32;6.47;;;7.00;99.90;;;;;;5044014;28;20037;-81
2022/05/05 02:35:11;;;;;;;10.65;5.40;;;7.00;99.90;;;;;;5046789;28;20041;-82
2022/05/05 02:40:22;;;;;;;;;;;6.90;99.90;;;;;;5048004;28;20045;-82
2022/05/05 02:42:48;;;;;;;10.55;5.78;;;6.90;99.90;;;;;;5045881;28;19920;-82
2022/05/05 02:45:13;;;;;;;11.55;5.75;;;6.90;99.90;;;;;;5043473;28;20040;-82
2022/05/05 02:47:39;;;;;;;10.07;5.68;;;7.30;99.90;;;;;;5046768;28;20153;-82
2022/05/05 02:50:05;;;;;;;11.45;5.65;;;6.90;99.90;;;;;;5045945;28;20033;-82
2022/05/05 02:52:31;;;;;;;11.65;6.05;;;6.90;99.90;;;;;;5043659;28;20128;-82
2022/05/05 02:54:56;;;;;;;11.73;6.50;;;7.00;99.90;;;;;;5047826;28;20111;-82
2022/05/05 02:57:24;;;;;;;12.95;6.05;;;6.90;99.90;;;;;;5044588;28;20055;-82
2022/05/05 02:59:54;;;;;;;14.95;6.57;;;6.90;99.90;;;;;;5047357;28;20116;-82
2022/05/05 03:02:20;;;;;;;12.68;6.40;;;6.90;99.90;;;;;;5045023;28;20080;-82
2022/05/05 03:04:46;;;;;;;12.02;6.65;;;6.90;99.90;;;;;;5044526;28;20132;-82
2022/05/05 03:07:12;;;;;;;14.15;6.82;;;6.90;99.90;;;;;;5044413;28;20041;-82
2022/05/05 03:09:39;;;;;;;13.60;6.38;;;6.90;99.90;;;;;;5042926;28;20059;-82
2022/05/05 03:12:09;;;;;;;11.50;6.63;;;6.90;99.90;;;;;;5044368;28;20049;-82
2022/05/05 03:14:35;;;;;;;12.82;6.88;;;6.90;99.90;;;;;;5044757;28;20124;-82
2022/05/05 03:17:00;;;;;;;16.35;6.55;;;6.90;99.90;;;;;;5046604;28;20056;-82
2022/05/05 03:19:26;;;;;;;11.38;7.35;;;6.90;99.90;;;;;;5044976;28;20055;-82
2022/05/05 03:21:53;;;;;;;14.43;6.53;;;7.00;99.90;;;;;;5044629;28;20063;-82
2022/05/05 03:24:18;;;;;;;14.30;7.03;;;7.00;99.90;;;;;;5041543;28;20481;-82
2022/05/05 03:26:44;;;;;;;12.25;6.85;;;7.00;99.90;;;;;;5045431;28;20041;-82
2022/05/05 03:29:10;;;;;;;13.13;7.60;;;7.00;99.90;;;;;;5049253;28;20045;-82
2022/05/05 03:31:35;;;;;;;16.27;7.82;;;7.00;99.90;;;;;;5044515;28;20465;-82
2022/05/05 03:34:01;;;;;;;10.93;6.70;;;7.00;99.90;;;;;;5046486;28;20463;-82
2022/05/05 03:36:26;;;;;;;13.35;7.28;;;7.00;99.90;;;;;;5038251;28;20076;-83
2022/05/05 03:38:54;;;;;;;12.10;7.13;;;7.00;99.90;;;;;;5045549;28;20045;-82
2022/05/05 03:41:19;;;;;;;15.60;6.65;;;7.10;99.90;;;;;;5044760;28;20037;-82
2022/05/05 03:43:45;;;;;;;17.15;7.20;;;7.10;99.90;;;;;;5044185;28;20052;-82
2022/05/05 03:46:11;;;;;;;15.15;7.78;;;7.10;99.90;;;;;;5047502;28;20119;-82
2022/05/05 03:48:36;;;;;;;13.02;6.78;;;7.10;99.90;;;;;;5038805;28;20112;-82
2022/05/05 03:51:02;;;;;;;15.75;6.95;;;7.00;99.90;;;;;;5047123;28;20057;-82
2022/05/05 03:53:28;;;;;;;11.63;7.00;;;7.10;99.90;;;;;;5044341;28;20494;-83
2022/05/05 03:55:53;;;;;;;14.77;7.20;;;7.10;99.90;;;;;;5045494;28;20493;-83
2022/05/05 03:58:19;;;;;;;12.15;7.55;;;7.10;99.90;;;;;;5044940;28;20508;-82
2022/05/05 04:00:46;;;;;;;16.10;7.80;;;7.00;99.90;;;;;;5045032;28;20526;-83
2022/05/05 04:03:30;;;;;;;13.57;8.13;;;7.00;99.90;;;;;;5047213;28;20144;-83
2022/05/05 04:05:56;;;;;;;16.10;7.90;;;7.00;99.90;;;;;;5047981;28;20446;-82
2022/05/05 04:08:22;;;;;;;15.50;8.18;;;7.10;99.90;;;;;;5042827;28;20037;-83
2022/05/05 04:10:47;;;;;;;15.43;7.53;;;7.10;99.90;;;;;;5045016;28;20038;-83
2022/05/05 04:13:13;;;;;;;12.40;7.68;;;7.10;99.90;;;;;;5047285;28;20078;-82
2022/05/05 04:15:39;;;;;;;12.80;7.65;;;7.10;99.90;;;;;;5044758;28;20048;-82
2022/05/05 04:18:05;;;;;;;12.80;7.40;;;7.10;99.90;;;;;;5040618;28;20080;-82
2022/05/05 04:20:31;;;;;;;16.98;8.35;;;7.10;99.90;;;;;;5043346;28;20073;-82
2022/05/05 04:22:57;;;;;;;17.85;7.97;;;7.20;99.90;;;;;;5041405;28;20519;-82
2022/05/05 04:25:22;;;;;;;16.55;8.15;;;7.20;99.90;;;;;;5045152;28;20064;-82
2022/05/05 04:27:49;;;;;;;18.85;8.25;;;7.20;99.90;;;;;;5047067;28;20123;-82
2022/05/05 04:30:16;;;;;;;13.88;8.05;;;7.30;99.90;;;;;;5045767;28;20041;-82
2022/05/05 04:32:42;;;;;;;14.25;7.95;;;7.30;99.90;;;;;;5044799;28;20053;-82
2022/05/05 04:35:09;;;;;;;15.48;8.20;;;7.30;99.90;;;;;;5045406;28;20025;-82
2022/05/05 04:37:34;;;;;;;14.70;8.60;;;7.30;99.90;;;;;;5046750;28;20033;-82
2022/05/05 04:40:00;;;;;;;17.05;8.50;;;7.40;99.90;;;;;;5044341;28;20052;-82
2022/05/05 04:42:26;;;;;;;14.70;7.82;;;7.40;99.90;;;;;;5049965;28;20045;-83
2022/05/05 04:44:52;;;;;;;15.63;8.68;;;7.50;99.90;;;;;;5047520;28;20063;-83
2022/05/05 04:47:17;;;;;;;17.70;9.35;;;7.40;99.90;;;;;;5050060;28;20152;-83
2022/05/05 04:49:43;;;;;;;17.73;8.55;;;7.40;99.90;;;;;;5043025;28;20041;-82
2022/05/05 04:52:08;;;;;;;15.25;8.32;;;7.40;99.90;;;;;;5047500;28;20040;-82
2022/05/05 04:54:34;;;;;;;17.27;8.45;;;7.50;99.90;;;;;;5051521;28;20132;-82
2022/05/05 04:57:00;;;;;;;13.35;8.38;;;7.50;99.90;;;;;;5048669;28;20049;-82
2022/05/05 04:59:26;;;;;;;16.95;8.43;;;7.50;99.90;;;;;;5049250;28;20068;-83
2022/05/05 05:01:52;;;;;;;15.85;7.70;;;7.60;99.90;;;;;;5046521;28;20102;-83
2022/05/05 05:04:18;;;;;;;16.52;8.63;;;7.60;99.90;;;;;;5048422;28;20048;-83
2022/05/05 05:06:43;;;;;;;14.77;7.95;;;7.60;99.90;;;;;;5047109;28;20053;-83
2022/05/05 05:09:09;;;;;;;14.00;7.88;;;7.60;99.90;;;;;;5049789;28;20037;-83
2022/05/05 05:11:34;;;;;;;17.90;8.35;;;7.70;99.90;;;;;;5042071;28;20087;-83
2022/05/05 05:14:00;;;;;;;15.88;8.63;;;7.70;99.90;;;;;;5041293;28;20045;-82
2022/05/05 05:16:26;;;;;;;14.65;8.38;;;7.70;99.90;;;;;;5051472;28;20068;-83
2022/05/05 05:18:53;;;;;;;15.65;8.27;;;7.80;99.90;;;;;;5051750;28;20076;-83
2022/05/05 05:21:20;;;;;;;16.17;8.93;;;7.80;99.90;;;;;;5049725;28;20080;-82
2022/05/05 05:23:45;;;;;;;16.08;7.90;;;7.90;99.90;;;;;;5046286;28;20067;-83
2022/05/05 05:26:11;;;;;;;15.52;8.00;;;7.90;99.90;;;;;;5043326;28;20484;-83
2022/05/05 05:28:36;;;;;;;12.70;7.95;;;8.00;99.90;;;;;;5046731;28;20048;-83
2022/05/05 05:31:02;;;;;;;13.93;7.53;;;8.10;99.90;;;;;;5047788;28;20558;-83
2022/05/05 05:33:27;;;;;;;17.83;8.40;;;8.10;99.90;;;;;;5047751;28;20037;-83
2022/05/05 05:35:53;;;;;;;12.57;7.38;;;8.20;99.90;;;;;;5043797;28;20052;-83
2022/05/05 05:38:20;;;;;;;13.98;8.30;;;8.30;99.90;;;;;;5043846;28;20416;-83
2022/05/05 05:40:45;;;;;;;14.23;8.43;;;8.30;99.90;;;;;;5042301;28;20167;-83
2022/05/05 05:43:11;;;;;;;13.43;7.95;;;8.40;99.90;;;;;;5048423;28;20048;-83
2022/05/05 05:45:37;;;;;;;15.32;8.77;;;8.40;99.90;;;;;;5047486;28;20462;-83
2022/05/05 05:48:04;;;;;;;13.63;7.20;;;8.50;99.90;;;;;;5042532;28;20056;-84
2022/05/05 05:50:30;;;;;;;12.10;7.97;;;8.60;99.90;;;;;;5044753;28;20048;-83
2022/05/05 05:52:57;;;;;;;14.10;8.27;;;8.60;99.90;;;;;;5048711;28;20100;-84
2022/05/05 05:55:22;;;;;;;13.82;8.65;;;8.70;99.90;;;;;;5047160;28;20080;-84
2022/05/05 05:57:48;;;;;;;12.18;7.68;;;8.80;99.90;;;;;;5045371;28;20083;-86
2022/05/05 06:00:14;;;;;;;15.85;8.40;;;8.80;99.90;;;;;;5048326;28;20472;-86
2022/05/05 06:05:25;;;;;;;16.15;8.93;;;9.00;99.90;;;;;;5044874;28;20049;-85
2022/05/05 06:07:51;;;;;;;14.93;7.28;;;9.00;99.90;;;;;;5047692;28;20136;-83
2022/05/05 06:10:20;;;;;;;13.70;7.90;;;9.10;99.90;;;;;;5046459;28;20140;-83
2022/05/05 06:12:46;;;;;;;15.60;8.68;;;9.20;99.90;;;;;;5044980;28;20063;-82
2022/05/05 06:15:11;;;;;;;17.13;8.57;;;9.30;99.90;;;;;;5044724;28;20033;-85
2022/05/05 06:17:37;;;;;;;13.07;8.52;;;9.30;99.90;;;;;;5044771;28;20052;-86
2022/05/05 06:20:03;;;;;;;14.25;8.38;;;9.40;99.90;;;;;;5045108;28;20049;-87
2022/05/05 06:22:29;;;;;;;16.02;8.40;;;9.50;99.90;;;;;;5038022;28;20055;-88
2022/05/05 06:24:55;;;;;;;16.80;8.52;;;9.50;99.90;;;;;;5038254;28;20045;-91
2022/05/05 06:27:20;;;;;;;17.98;8.63;;;9.60;99.90;;;;;;5046823;28;20044;-87
2022/05/05 06:29:46;;;;;;;21.15;9.38;;;9.70;99.90;;;;;;5040571;28;20045;-84
2022/05/05 06:32:11;;;;;;;12.68;8.75;;;9.80;99.90;;;;;;5045878;28;20045;-84
2022/05/05 06:34:37;;;;;;;12.88;8.10;;;9.80;99.90;;;;;;5048783;28;20044;-82
2022/05/05 06:37:04;;;;;;;18.15;8.23;;;9.90;99.90;;;;;;5047978;28;20103;-85
2022/05/05 06:39:30;;;;;;;14.77;7.40;;;10.00;99.90;;;;;;5046008;28;20069;-84
2022/05/05 06:41:56;;;;;;;11.90;7.00;;;10.10;99.90;;;;;;5045891;28;20503;-85
2022/05/05 06:44:22;;;;;;;12.85;6.97;;;10.10;99.90;;;;;;5042115;28;20128;-86
2022/05/05 06:46:48;;;;;;;13.00;7.70;;;10.20;99.90;;;;;;5043959;28;20047;-86
2022/05/05 06:49:14;;;;;;;14.15;6.90;;;10.30;99.90;;;;;;5047059;28;20041;-83
2022/05/05 06:51:39;;;;;;;17.67;6.93;;;10.30;99.90;;;;;;5041677;28;20040;-82
2022/05/05 06:54:05;;;;;;;16.23;7.45;;;10.40;99.90;;;;;;5042530;28;20045;-84
2022/05/05 06:56:31;;;;;;;15.90;6.72;;;10.50;99.90;;;;;;5045636;28;20060;-87
2022/05/05 06:58:56;;;;;;;14.40;6.70;;;10.50;99.90;;;;;;5040374;28;20052;-83
2022/05/05 07:06:50;;;;;;;10.95;6.88;;;10.80;99.90;;;;;;5046305;28;20045;-86
2022/05/05 07:12:00;;;;;;;13.38;7.50;;;10.90;99.90;;;;;;5045484;28;20408;-88
2022/05/05 07:14:25;;;;;;;14.63;6.93;;;11.00;99.90;;;;;;5041272;28;20041;-87
2022/05/05 07:16:51;;;;;;;13.90;6.80;;;11.00;99.90;;;;;;5040308;28;20048;-88
2022/05/05 07:19:16;;;;;;;17.90;7.35;;;11.10;99.90;;;;;;5042800;28;20392;-88
2022/05/05 07:21:42;;;;;;;14.68;6.97;;;11.20;99.90;;;;;;5048624;28;20518;-86
2022/05/05 07:24:07;;;;;;;16.75;6.57;;;11.30;99.90;;;;;;5038837;28;20133;-90
2022/05/05 07:26:33;;;;;;;12.05;6.95;;;11.30;99.90;;;;;;5043205;28;20080;-88
2022/05/05 07:28:58;;;;;;;12.48;5.55;;;11.40;99.90;;;;;;5043018;28;20072;-87
2022/05/05 07:31:24;;;;;;;12.23;5.43;;;11.50;99.90;;;;;;5044675;28;20127;-90
2022/05/05 07:33:49;;;;;;;16.55;7.35;;;11.60;99.90;;;;;;5044352;28;20076;-88
2022/05/05 07:36:15;;;;;;;19.33;6.97;;;11.60;99.90;;;;;;5044822;28;20448;-89
2022/05/05 07:38:41;;;;;;;12.45;6.35;;;11.70;99.90;;;;;;5042533;28;20065;-90
2022/05/05 07:41:06;;;;;;;12.38;6.60;;;11.80;99.90;;;;;;5041680;28;20088;-89
2022/05/05 07:43:32;;;;;;;13.43;6.07;;;11.90;99.90;;;;;;5041305;28;20741;-91
2022/05/05 07:45:58;;;;;;;10.00;5.72;;;12.00;99.90;;;;;;5041616;28;20055;-88
2022/05/05 07:48:23;;;;;;;15.02;5.07;;;12.10;99.90;;;;;;5042600;28;20076;-88
2022/05/05 07:50:49;;;;;;;15.05;6.43;;;12.20;99.90;;;;;;5045447;28;20041;-84
2022/05/05 07:53:15;;;;;;;12.23;5.60;;;12.30;99.90;;;;;;5043008;28;20449;-87
2022/05/05 07:55:41;;;;;;;10.65;5.75;;;12.30;99.90;;;;;;5041496;28;20048;-86
2022/05/05 07:58:06;;;;;;;9.93;4.93;;;12.40;99.90;;;;;;5046107;28;20038;-85
2022/05/05 08:00:32;;;;;;;12.30;5.35;;;12.50;99.90;;;;;;5044840;28;20171;-85
2022/05/05 08:02:58;;;;;;;11.85;5.82;;;12.60;99.90;;;;;;5039773;28;20106;-88
2022/05/05 08:05:23;;;;;;;12.43;5.32;;;12.70;99.90;;;;;;5044874;28;20577;-87
2022/05/05 08:07:51;;;;;;;13.10;5.10;;;12.70;99.90;;;;;;5042774;28;20411;-84
2022/05/05 08:10:18;;;;;;;15.57;5.97;;;12.80;99.90;;;;;;5045075;28;20041;-83
2022/05/05 08:12:45;;;;;;;15.02;5.68;;;13.10;99.90;;;;;;5042660;28;20086;-89
2022/05/05 08:15:12;;;;;;;10.80;5.20;;;13.00;99.90;;;;;;5049319;28;20493;-90
2022/05/05 08:17:38;;;;;;;13.18;5.07;;;13.10;99.90;;;;;;5049611;28;20044;-88
2022/05/05 08:20:06;;;;;;;10.25;4.38;;;13.30;99.90;;;;;;5043205;28;20069;-88
2022/05/05 08:22:31;;;;;;;9.00;4.28;;;13.40;99.90;;;;;;5039224;28;20033;-88
2022/05/05 08:30:25;;;;;;;9.10;3.38;;;13.70;99.90;;;;;;5046099;28;20140;-87
2022/05/05 08:32:51;;;;;;;13.18;4.35;;;13.80;99.90;;;;;;5046611;28;20567;-87
2022/05/05 08:35:17;;;;;;;9.88;3.42;;;13.90;99.90;;;;;;5044223;28;20131;-89
2022/05/05 08:37:42;;;;;;;6.72;3.45;;;14.00;99.90;;;;;;5043783;28;20051;-86
2022/05/05 08:40:12;;;;;;;9.02;3.22;;;14.20;99.90;;;;;;5041713;28;20073;-87
2022/05/05 08:42:38;;;;;;;7.32;3.08;;;14.30;99.90;;;;;;5047382;28;20063;-86
2022/05/05 08:45:04;;;;;;;7.80;3.67;;;14.70;99.90;;;;;;5042668;28;20041;-89
2022/05/05 08:47:32;;;;;;;9.00;3.72;;;14.50;99.90;;;;;;5049017;28;20049;-85
2022/05/05 08:49:59;;;;;;;10.75;4.00;;;14.60;99.90;;;;;;5046925;28;20484;-88
2022/05/05 08:52:29;;;;;;;8.82;3.60;;;14.70;99.90;;;;;;5046681;28;20047;-88
2022/05/05 08:54:55;;;;;;;10.98;3.72;;;14.80;99.90;;;;;;5045551;28;22230;-86
2022/05/05 08:57:23;;;;;;;10.07;4.25;;;14.90;99.90;;;;;;5052156;28;20122;-89
2022/05/05 08:59:48;;;;;;;9.73;3.60;;;15.00;99.30;;;;;;5048123;28;20045;-90
2022/05/05 09:02:16;;;;;;;9.65;3.97;;;15.10;99.70;;;;;;5051462;28;20466;-90
2022/05/05 09:04:45;;;;;;;10.07;3.58;;;15.10;99.80;;;;;;5050858;28;20048;-92
2022/05/05 09:07:10;;;;;;;7.80;3.80;;;15.20;99.40;;;;;;5051838;28;20055;-89
2022/05/05 09:09:36;;;;;;;8.40;4.43;;;15.40;99.60;;;;;;5050410;28;20049;-94
2022/05/05 09:12:13;;;;;;;10.63;3.78;;;15.50;99.50;;;;;;5056619;28;20102;-86
2022/05/05 09:14:50;;;;;;;8.38;4.07;;;15.60;99.50;;;;;;5053346;28;20038;-92
2022/05/05 09:17:21;;;;;;;15.07;4.57;;;15.70;99.20;;;;;;5044010;28;20128;-91
2022/05/05 09:19:50;;;;;;;9.60;4.40;;;15.80;99.10;;;;;;5043804;28;20042;-91
2022/05/05 09:22:20;;;;;;;8.75;4.32;;;16.00;98.90;;;;;;5049049;28;20045;-91
2022/05/05 09:24:51;;;;;;;11.95;4.43;;;16.10;99.00;;;;;;5042028;28;20080;-91
2022/05/05 09:27:33;;;;;;;11.65;4.38;;;16.10;98.90;;;;;;5046385;28;20045;-92
2022/05/05 09:30:02;;;;;;;10.82;4.60;;;16.20;98.40;;;;;;5043788;28;20087;-90
2022/05/05 09:32:38;;;;;;;12.23;5.22;;;16.20;98.50;;;;;;5043350;28;20064;-90
2022/05/05 09:35:10;;;;;;;13.30;5.20;;;16.30;97.90;;;;;;5046872;28;20044;-92
2022/05/05 09:37:37;;;;;;;8.75;4.70;;;16.30;97.60;;;;;;5044054;28;20044;-93
2022/05/05 09:40:06;;;;;;;10.68;4.50;;;16.30;97.10;;;;;;5046156;28;20048;-92
2022/05/05 09:42:42;;;;;;;9.75;4.90;;;16.40;97.00;;;;;;5047288;28;20104;-90
2022/05/05 09:45:18;;;;;;;13.38;5.25;;;16.50;97.80;;;;;;5044143;28;20484;-89
2022/05/05 09:48:14;;;;;;;10.20;5.55;;;16.60;97.40;;;;;;5046361;28;20476;-88
2022/05/05 09:50:43;;;;;;;9.70;5.38;;;16.70;97.70;;;;;;5036611;28;20064;-90
2022/05/05 09:58:59;;;;;;;11.20;5.57;;;17.00;97.10;;;;;;5044586;28;20224;-91
2022/05/05 10:01:31;;;;;;;11.15;5.35;;;17.10;96.80;;;;;;5042687;28;20403;-90
2022/05/05 10:04:03;;;;;;;9.43;5.65;;;17.20;97.00;;;;;;5040496;28;20056;-95
2022/05/05 10:06:49;;;;;;;9.65;5.75;;;17.30;96.80;;;;;;5043079;28;20404;-86
2022/05/05 10:09:16;;;;;;;12.63;5.53;;;17.50;96.40;;;;;;5048101;28;20045;-85
2022/05/05 10:11:42;;;;;;;12.23;5.93;;;17.50;96.00;;;;;;5044082;28;20084;-91
2022/05/05 10:14:13;;;;;;;12.93;5.68;;;17.60;96.00;;;;;;5043545;28;20508;-89
2022/05/05 10:16:40;;;;;;;9.57;5.25;;;17.70;95.20;;;;;;5046317;28;20053;-89
2022/05/05 10:19:06;;;;;;;8.75;5.32;;;17.80;95.80;;;;;;5041212;28;20089;-89
2022/05/05 10:21:46;;;;;;;12.50;5.68;;;17.90;95.40;;;;;;5039815;28;20040;-88
2022/05/05 10:24:19;;;;;;;10.40;6.05;;;18.10;95.40;;;;;;5036745;28;20040;-85
2022/05/05 10:26:53;;;;;;;11.75;5.70;;;18.30;95.10;;;;;;5041629;28;20076;-84
2022/05/05 10:29:41;;;;;;;9.88;5.47;;;18.40;94.40;;;;;;5043148;28;20127;-83
2022/05/05 10:32:20;;;;;;;11.75;5.22;;;18.50;93.60;;;;;;5042548;28;20049;-91
2022/05/05 10:34:52;;;;;;;10.07;5.32;;;18.60;94.20;;;;;;5043562;28;20057;-87
2022/05/05 10:37:22;;;;;;;10.43;4.95;;;18.70;94.00;;;;;;5042702;28;20489;-88
2022/05/05 10:40:10;;;;;;;8.50;4.55;;;18.70;93.90;;;;;;5042035;28;20072;-87
2022/05/05 10:42:41;;;;;;;7.47;4.22;;;18.70;92.90;;;;;;5044291;28;20071;-86
2022/05/05 10:45:17;;;;;;;8.73;4.65;;;18.70;93.40;;;;;;5040092;28;20053;-88
2022/05/05 10:47:58;;;;;;;7.85;4.63;;;18.70;92.10;;;;;;5040537;28;20051;-91
2022/05/05 10:50:28;;;;;;;8.23;3.92;;;18.80;93.10;;;;;;5054770;28;20373;-96
2022/05/05 10:52:54;;;;;;;7.18;4.20;;;18.90;93.10;;;;;;5055246;28;20044;-93
2022/05/05 10:55:31;;;;;;;11.68;4.70;;;19.00;93.40;;;;;;5044165;28;20057;-92
2022/05/05 10:57:56;;;;;;;7.30;4.70;;;19.10;92.60;;;;;;5044041;28;20200;-90
2022/05/05 11:00:23;;;;;;;8.23;3.95;;;19.10;92.90;;;;;;5041929;28;20071;-88
2022/05/05 11:02:58;;;;;;;8.65;4.30;;;19.10;92.60;;;;;;5044690;28;20080;-87
2022/05/05 11:05:27;;;;;;;9.65;4.53;;;19.10;91.50;;;;;;5038517;28;20452;-95
2022/05/05 11:08:17;;;;;;;12.15;4.32;;;19.10;91.70;;;;;;5069862;28;20044;-96
2022/05/05 11:13:48;;;;;;;8.50;4.90;;;19.20;92.00;;;;;;5166811;23;20046;-96
2022/05/05 11:22:08;;;;;;;7.40;4.30;;;19.70;91.80;;;;;;5065466;28;20047;-95
2022/05/05 11:24:35;;;;;;;6.18;4.15;;;19.80;91.60;;;;;;5066002;28;20057;-96
2022/05/05 11:27:01;;;;;;;8.10;4.05;;;19.80;91.20;;;;;;5056116;28;20025;-94
2022/05/05 11:29:29;;;;;;;8.27;4.78;;;19.80;91.30;;;;;;5063928;28;20045;-95
2022/05/05 11:32:02;;;;;;;9.10;5.45;;;19.80;91.10;;;;;;5038364;28;20495;-92
2022/05/05 11:34:36;;;;;;;7.93;4.57;;;19.80;90.80;;;;;;5041088;28;20116;-94
2022/05/05 11:37:02;;;;;;;;;;;19.80;90.80;;;;;;5045425;28;20049;-92
2022/05/05 11:39:29;;;;;;;8.27;5.07;;;19.80;89.20;;;;;;5030894;28;20291;-90
2022/05/05 11:42:04;;;;;;;9.02;5.63;;;19.80;90.40;;;;;;5050807;28;20041;-84
2022/05/05 11:44:30;;;;;;;12.07;5.53;;;19.80;89.90;;;;;;5050784;28;20048;-83
2022/05/05 11:47:07;;;;;;;10.55;5.80;;;19.80;90.30;;;;;;5049931;28;20386;-86
2022/05/05 11:49:33;;;;;;;9.70;5.35;;;19.80;87.00;;;;;;5058739;28;20047;-82
2022/05/05 11:51:59;;;;;;;10.57;5.70;;;19.70;90.00;;;;;;5053478;28;20041;-82
2022/05/05 11:54:33;;;;;;;13.27;5.93;;;19.80;90.00;;;;;;5054555;28;20045;-84
2022/05/05 11:57:00;;;;;;;9.98;6.05;;;19.90;90.30;;;;;;5036981;28;20072;-84
2022/05/05 12:02:11;;;;;;;14.32;6.85;;;20.10;90.50;;;;;;5048424;28;20144;-84
2022/05/05 12:04:46;;;;;;;10.77;6.57;;;20.10;87.80;;;;;;5053642;28;20124;-83
2022/05/05 12:07:18;;;;;;;;;;;20.20;87.90;;;;;;5054628;28;20059;-83
2022/05/05 12:09:48;;;;;;;11.60;6.63;;;20.30;87.90;;;;;;5053405;28;20342;-83
2022/05/05 12:12:21;;;;;;;9.43;6.28;;;20.30;87.80;;;;;;5054587;28;20053;-82
2022/05/05 12:15:07;;;;;;;8.63;5.82;;;20.40;87.60;;;;;;5024926;28;20450;-82
2022/05/05 12:17:43;;;;;;;10.95;6.82;;;20.40;88.00;;;;;;5032025;28;20091;-83
2022/05/05 12:20:11;;;;;;;10.65;6.63;;;20.40;88.00;;;;;;5053112;28;20056;-82
2022/05/05 12:22:41;;;;;;;13.55;6.93;;;20.40;89.00;;;;;;5027944;28;20055;-82
2022/05/05 12:25:15;;;;;;;11.10;6.78;;;20.50;89.70;;;;;;5024927;28;20404;-83
2022/05/05 12:27:44;;;;;;;11.90;6.40;;;20.60;89.60;;;;;;5033845;28;20049;-82
2022/05/05 12:30:12;;;;;;;11.40;6.82;;;20.70;89.20;;;;;;5050695;28;20407;-82
2022/05/05 12:32:50;;;;;;;9.38;7.38;;;20.70;89.90;;;;;;5027986;28;20080;-82
2022/05/05 12:35:17;;;;;;;11.68;6.90;;;20.60;86.00;;;;;;5028401;28;20075;-82
2022/05/05 12:37:43;;;;;;;12.85;7.82;;;20.50;86.40;;;;;;5050484;28;20041;-81
2022/05/05 12:40:09;;;;;;;12.45;7.50;;;20.50;87.30;;;;;;5033108;28;20080;-82
2022/05/05 12:42:43;;;;;;;11.93;7.75;;;20.40;87.70;;;;;;5053622;28;20098;-82
2022/05/05 12:45:14;;;;;;;11.63;6.97;;;20.50;86.60;;;;;;5052044;28;20033;-82
2022/05/05 12:47:41;;;;;;;10.02;6.90;;;20.40;87.50;;;;;;5068742;28;20043;-82
2022/05/05 12:50:30;;;;;;;9.77;6.35;;;20.50;88.60;;;;;;5054526;28;20045;-82
2022/05/05 13:01:20;;;;;;;12.70;6.70;;;20.90;87.10;;;;;;5043002;28;20088;-82
2022/05/05 13:03:46;;;;;;;12.93;6.65;;;21.00;88.40;;;;;;5048189;28;20875;-82
2022/05/05 13:06:12;;;;;;;9.20;6.28;;;21.10;87.90;;;;;;5033608;28;20083;-82
2022/05/05 13:08:38;;;;;;;11.13;6.00;;;21.10;88.70;;;;;;5050712;28;20052;-82
2022/05/05 13:11:04;;;;;;;11.48;6.60;;;21.10;89.80;;;;;;5049629;28;20396;-82
2022/05/05 13:13:29;;;;;;;9.98;5.90;;;21.10;90.00;;;;;;5053194;28;20049;-80
2022/05/05 13:15:55;;;;;;;8.70;5.82;;;21.10;88.20;;;;;;5047710;28;20041;-80
2022/05/05 13:18:20;;;;;;;9.80;5.88;;;21.10;88.40;;;;;;5051049;28;20060;-81
2022/05/05 13:20:46;;;;;;;10.30;5.95;;;21.10;89.80;;;;;;5053020;28;20049;-81
2022/05/05 13:23:11;;;;;;;10.18;6.53;;;21.20;89.80;;;;;;5047818;28;20102;-80
2022/05/05 13:25:37;;;;;;;12.93;6.93;;;21.30;88.80;;;;;;5031615;28;20391;-82
2022/05/05 13:28:04;;;;;;;8.68;5.93;;;21.30;85.70;;;;;;5029640;28;20165;-82
2022/05/05 13:30:29;;;;;;;7.20;5.20;;;21.20;85.70;;;;;;5030498;28;20041;-83
2022/05/05 13:32:55;;;;;;;8.98;6.10;;;21.10;85.80;;;;;;5024886;28;20056;-82
2022/05/05 13:35:20;;;;;;;10.07;6.60;;;21.10;86.20;;;;;;5050086;28;20029;-82
2022/05/05 13:37:46;;;;;;;10.40;6.00;;;21.10;83.30;;;;;;5053342;28;20049;-82